createdAt,value
2023-02-07T00:01:19.445Z,14.90
2023-02-07T00:03:46.820Z,13.60
2023-02-07T00:06:16.672Z,13.50
2023-02-07T00:08:44.255Z,10.57
2023-02-07T00:11:16.500Z,11.67
2023-02-07T00:13:44.913Z,12.67
2023-02-07T00:16:12.381Z,11.97
2023-02-07T00:18:40.744Z,12.27
2023-02-07T00:21:15.887Z,12.63
2023-02-07T00:23:43.501Z,11.40
2023-02-07T00:26:11.912Z,10.60
2023-02-07T00:28:39.757Z,9.77
2023-02-07T00:31:07.732Z,9.07
2023-02-07T00:33:39.396Z,9.93
2023-02-07T00:36:08.401Z,8.00
2023-02-07T00:38:35.154Z,9.60
2023-02-07T00:41:02.077Z,8.70
2023-02-07T00:43:32.625Z,8.87
2023-02-07T00:46:01.831Z,8.70
2023-02-07T00:48:29.838Z,9.70
2023-02-07T00:50:56.761Z,11.87
2023-02-07T00:53:24.331Z,10.60
2023-02-07T00:55:51.260Z,9.80
2023-02-07T00:58:18.003Z,8.00
2023-02-07T01:00:45.570Z,9.33
2023-02-07T01:03:12.312Z,9.87
2023-02-07T01:05:39.730Z,9.57
2023-02-07T01:08:06.758Z,8.40
2023-02-07T01:10:35.410Z,9.93
2023-02-07T01:13:02.130Z,10.20
2023-02-07T01:15:28.941Z,9.63
2023-02-07T01:17:55.731Z,12.17
2023-02-07T01:20:22.483Z,10.00
2023-02-07T01:22:49.138Z,11.03
2023-02-07T01:25:15.804Z,10.80
2023-02-07T01:27:42.491Z,11.37
2023-02-07T01:30:09.883Z,10.70
2023-02-07T01:32:36.545Z,9.37
2023-02-07T01:35:03.744Z,8.30
2023-02-07T01:37:32.394Z,10.37
2023-02-07T01:39:59.087Z,9.73
2023-02-07T01:42:27.802Z,9.20
2023-02-07T01:44:54.400Z,9.00
2023-02-07T01:47:23.614Z,8.20
2023-02-07T01:49:54.181Z,9.17
2023-02-07T01:52:25.998Z,10.40
2023-02-07T01:54:58.927Z,9.37
2023-02-07T01:57:26.127Z,9.00
2023-02-07T01:59:56.085Z,8.10
2023-02-07T02:02:24.755Z,10.33
2023-02-07T02:04:54.174Z,11.70
2023-02-07T02:07:21.742Z,10.60
2023-02-07T02:09:48.462Z,13.10
2023-02-07T02:12:18.627Z,10.07
2023-02-07T02:15:23.342Z,10.00
2023-02-07T02:17:59.408Z,11.30
2023-02-07T02:20:44.478Z,8.90
2023-02-07T02:23:30.245Z,9.63
2023-02-07T02:26:17.181Z,9.53
2023-02-07T02:29:04.263Z,10.30
2023-02-07T02:31:52.571Z,10.53
2023-02-07T02:34:43.573Z,10.53
2023-02-07T02:37:30.657Z,9.63
2023-02-07T02:40:30.933Z,8.67
2023-02-07T02:43:28.682Z,9.57
2023-02-07T02:46:04.871Z,9.00
2023-02-07T02:48:33.929Z,9.27
2023-02-07T02:51:01.019Z,10.43
2023-02-07T02:53:27.815Z,11.10
2023-02-07T02:56:15.807Z,9.40
2023-02-07T02:59:10.908Z,8.80
2023-02-07T03:01:49.809Z,8.70
2023-02-07T03:04:35.358Z,12.77
2023-02-07T03:07:08.684Z,10.57
2023-02-07T03:10:08.571Z,11.23
2023-02-07T03:12:48.463Z,11.57
2023-02-07T03:15:34.295Z,12.03
2023-02-07T03:18:08.819Z,8.57
2023-02-07T03:20:50.268Z,10.57
2023-02-07T03:23:20.171Z,11.53
2023-02-07T03:25:50.703Z,8.50
2023-02-07T03:28:21.775Z,10.30
2023-02-07T03:30:51.724Z,9.07
2023-02-07T03:33:20.037Z,8.63
2023-02-07T03:35:58.057Z,8.80
2023-02-07T03:38:25.070Z,9.87
2023-02-07T03:40:58.418Z,8.50
2023-02-07T03:43:29.126Z,8.83
2023-02-07T03:45:56.730Z,8.80
2023-02-07T03:48:23.780Z,7.97
2023-02-07T03:50:52.110Z,8.57
2023-02-07T03:53:20.372Z,9.40
2023-02-07T03:55:47.259Z,8.50
2023-02-07T03:58:14.140Z,8.43
2023-02-07T04:00:40.952Z,8.67
2023-02-07T04:03:07.763Z,8.00
2023-02-07T04:05:34.601Z,8.00
2023-02-07T04:08:01.568Z,7.53
2023-02-07T04:10:28.370Z,8.77
2023-02-07T04:12:55.056Z,7.43
2023-02-07T04:15:22.116Z,8.13
2023-02-07T04:17:48.799Z,7.73
2023-02-07T04:20:15.539Z,7.50
2023-02-07T04:22:42.237Z,7.67
2023-02-07T04:25:09.222Z,8.50
2023-02-07T04:27:35.914Z,8.27
2023-02-07T04:30:02.667Z,7.53
2023-02-07T04:32:29.426Z,8.30
2023-02-07T04:34:56.194Z,8.00
2023-02-07T04:37:22.946Z,8.87
2023-02-07T04:39:49.678Z,7.50
2023-02-07T04:42:16.445Z,7.57
2023-02-07T04:44:43.219Z,7.37
2023-02-07T04:47:09.895Z,7.33
2023-02-07T04:49:36.694Z,6.90
2023-02-07T04:52:03.461Z,7.97
2023-02-07T04:54:30.293Z,6.40
2023-02-07T04:56:57.171Z,7.60
2023-02-07T04:59:23.961Z,8.10
2023-02-07T05:01:50.751Z,7.17
2023-02-07T05:04:17.552Z,8.87
2023-02-07T05:06:44.409Z,10.30
2023-02-07T05:09:11.251Z,9.50
2023-02-07T05:11:37.972Z,8.40
2023-02-07T05:14:04.910Z,8.13
2023-02-07T05:16:31.740Z,7.87
2023-02-07T05:18:58.409Z,7.80
2023-02-07T05:21:25.207Z,7.90
2023-02-07T05:23:52.219Z,7.87
2023-02-07T05:26:19.147Z,7.63
2023-02-07T05:28:45.949Z,8.97
2023-02-07T05:31:12.883Z,8.57
2023-02-07T05:33:39.647Z,9.13
2023-02-07T05:36:07.240Z,8.50
2023-02-07T05:38:34.084Z,7.20
2023-02-07T05:41:01.248Z,6.93
2023-02-07T05:43:27.935Z,7.63
2023-02-07T05:45:54.888Z,6.87
2023-02-07T05:48:21.630Z,7.57
2023-02-07T05:50:48.527Z,8.00
2023-02-07T05:53:15.256Z,8.20
2023-02-07T05:55:41.930Z,8.33
2023-02-07T05:58:08.737Z,8.10
2023-02-07T06:00:35.449Z,6.43
2023-02-07T06:03:02.233Z,8.33
2023-02-07T06:05:32.097Z,7.77
2023-02-07T06:07:59.028Z,7.70
2023-02-07T06:10:25.747Z,8.87
2023-02-07T06:12:52.532Z,8.93
2023-02-07T06:15:19.373Z,7.87
2023-02-07T06:17:46.069Z,9.07
2023-02-07T06:20:13.129Z,8.20
2023-02-07T06:22:39.957Z,8.87
2023-02-07T06:25:11.831Z,8.43
2023-02-07T06:27:40.418Z,8.07
2023-02-07T06:30:09.046Z,8.90
2023-02-07T06:32:35.851Z,7.10
2023-02-07T06:35:02.800Z,7.47
2023-02-07T06:37:29.717Z,6.20
2023-02-07T06:39:56.508Z,7.00
2023-02-07T06:42:23.374Z,7.53
2023-02-07T06:44:50.109Z,7.47
2023-02-07T06:47:17.277Z,8.20
2023-02-07T06:49:43.984Z,6.90
2023-02-07T06:52:10.686Z,7.97
2023-02-07T06:54:37.738Z,6.60
2023-02-07T06:57:04.530Z,7.30
2023-02-07T06:59:31.611Z,7.43
2023-02-07T07:02:00.623Z,7.37
2023-02-07T07:04:27.824Z,7.47
2023-02-07T07:06:54.567Z,7.23
2023-02-07T07:09:21.302Z,8.03
2023-02-07T07:11:48.018Z,7.90
2023-02-07T07:14:14.734Z,8.17
2023-02-07T07:16:41.478Z,7.10
2023-02-07T07:19:08.326Z,8.20
2023-02-07T07:21:35.795Z,8.90
2023-02-07T07:24:02.479Z,8.43
2023-02-07T07:26:39.538Z,8.63
2023-02-07T07:29:13.646Z,9.50
2023-02-07T07:31:40.403Z,8.23
2023-02-07T07:34:07.171Z,9.17
2023-02-07T07:36:33.830Z,10.00
2023-02-07T07:39:03.597Z,8.77
2023-02-07T07:41:30.429Z,8.03
2023-02-07T07:43:57.106Z,9.27
2023-02-07T07:46:23.857Z,9.33
2023-02-07T07:48:50.752Z,8.67
2023-02-07T07:51:17.446Z,8.77
2023-02-07T07:53:45.197Z,9.00
2023-02-07T07:56:11.924Z,11.13
2023-02-07T07:58:38.662Z,8.80
2023-02-07T08:01:05.755Z,9.50
2023-02-07T08:03:32.506Z,9.97
2023-02-07T08:05:59.312Z,8.53
2023-02-07T08:08:26.145Z,9.27
2023-02-07T08:10:54.005Z,10.70
2023-02-07T08:13:20.768Z,9.10
2023-02-07T08:15:47.909Z,10.50
2023-02-07T08:18:14.672Z,9.77
2023-02-07T08:20:41.758Z,14.20
2023-02-07T08:23:08.488Z,12.50
2023-02-07T08:25:35.217Z,11.97
2023-02-07T08:28:04.356Z,14.90
2023-02-07T08:30:31.307Z,13.90
2023-02-07T08:32:58.142Z,10.60
2023-02-07T08:35:24.823Z,11.80
2023-02-07T08:37:51.496Z,11.23
2023-02-07T08:40:18.498Z,8.90
2023-02-07T08:42:45.597Z,13.30
2023-02-07T08:45:14.306Z,9.90
2023-02-07T08:47:40.969Z,11.93
2023-02-07T08:50:08.992Z,10.40
2023-02-07T08:52:35.646Z,13.30
2023-02-07T08:55:02.680Z,13.83
2023-02-07T08:57:29.361Z,12.97
2023-02-07T08:59:56.263Z,14.03
2023-02-07T09:02:23.432Z,11.17
2023-02-07T09:04:50.301Z,13.00
2023-02-07T09:07:17.052Z,11.57
2023-02-07T09:09:44.119Z,11.10
2023-02-07T09:12:11.970Z,11.33
2023-02-07T09:14:39.969Z,13.77
2023-02-07T09:17:08.098Z,11.70
2023-02-07T09:19:35.715Z,13.80
2023-02-07T09:22:03.693Z,12.30
2023-02-07T09:24:30.479Z,13.70
2023-02-07T09:26:57.170Z,12.40
2023-02-07T09:29:24.229Z,13.30
2023-02-07T09:31:51.474Z,11.13
2023-02-07T09:34:18.495Z,13.47
2023-02-07T09:36:45.340Z,11.77
2023-02-07T09:39:12.154Z,10.90
2023-02-07T09:41:56.028Z,11.27
2023-02-07T09:44:41.449Z,14.53
2023-02-07T09:47:14.807Z,13.83
2023-02-07T09:50:00.239Z,11.93
2023-02-07T09:52:36.035Z,11.83
2023-02-07T09:55:05.538Z,10.90
2023-02-07T09:57:41.580Z,10.40
2023-02-07T10:00:30.910Z,12.33
2023-02-07T10:03:14.468Z,13.50
2023-02-07T10:05:49.487Z,11.40
2023-02-07T10:08:17.784Z,12.57
2023-02-07T10:10:58.246Z,12.23
2023-02-07T10:13:55.542Z,11.10
2023-02-07T10:16:41.498Z,15.40
2023-02-07T10:19:26.209Z,12.53
2023-02-07T10:22:01.457Z,14.20
2023-02-07T10:24:52.063Z,11.10
2023-02-07T10:27:38.038Z,12.70
2023-02-07T10:30:17.181Z,11.03
2023-02-07T10:32:46.980Z,10.60
2023-02-07T10:35:28.527Z,10.70
2023-02-07T10:37:59.532Z,12.80
2023-02-07T10:40:40.966Z,12.60
2023-02-07T10:43:32.970Z,13.00
2023-02-07T10:46:06.400Z,11.50
2023-02-07T10:48:34.308Z,13.40
2023-02-07T10:51:03.571Z,12.37
2023-02-07T10:53:56.512Z,13.43
2023-02-07T10:56:26.688Z,9.70
2023-02-07T10:58:54.410Z,12.70
2023-02-07T11:01:24.171Z,11.90
2023-02-07T11:03:50.900Z,12.20
2023-02-07T11:06:26.695Z,11.47
2023-02-07T11:09:12.320Z,12.13
2023-02-07T11:11:40.831Z,13.03
2023-02-07T11:14:08.318Z,13.43
2023-02-07T11:16:35.379Z,18.73
2023-02-07T11:19:06.915Z,11.70
2023-02-07T11:21:33.494Z,13.20
2023-02-07T11:24:12.976Z,12.10
2023-02-07T11:27:05.358Z,10.37
2023-02-07T11:29:37.391Z,10.10
2023-02-07T11:32:04.510Z,10.47
2023-02-07T11:34:42.361Z,11.20
2023-02-07T11:37:23.110Z,11.03
2023-02-07T11:39:51.548Z,9.30
2023-02-07T11:42:31.895Z,8.17
2023-02-07T11:45:04.394Z,10.77
2023-02-07T11:47:32.119Z,9.87
2023-02-07T11:50:04.676Z,9.83
2023-02-07T11:52:33.254Z,10.27
2023-02-07T11:55:06.042Z,8.20
2023-02-07T11:57:33.811Z,9.03
2023-02-07T12:00:17.156Z,9.80
2023-02-07T12:02:52.005Z,10.80
2023-02-07T12:05:25.805Z,10.20
2023-02-07T12:08:00.801Z,10.67
2023-02-07T12:10:36.476Z,11.80
2023-02-07T12:13:21.890Z,9.27
2023-02-07T12:15:54.364Z,7.20
2023-02-07T12:18:24.179Z,8.60
2023-02-07T12:21:27.209Z,8.77
2023-02-07T12:24:01.518Z,9.30
2023-02-07T12:26:52.055Z,9.50
2023-02-07T12:29:37.492Z,7.93
2023-02-07T12:32:29.252Z,9.37
2023-02-07T12:35:06.322Z,8.53
2023-02-07T12:37:44.947Z,8.10
2023-02-07T12:40:20.178Z,8.20
2023-02-07T12:42:57.662Z,7.03
2023-02-07T12:45:51.671Z,9.07
2023-02-07T12:48:30.645Z,7.50
2023-02-07T12:51:30.312Z,8.20
2023-02-07T12:54:35.164Z,7.97
2023-02-07T12:57:10.481Z,8.20
2023-02-07T13:00:01.975Z,8.80
2023-02-07T13:02:37.844Z,7.20
2023-02-07T13:05:37.631Z,8.60
2023-02-07T13:08:21.936Z,7.77
2023-02-07T13:11:08.325Z,8.50
2023-02-07T13:13:59.545Z,8.60
2023-02-07T13:16:40.771Z,9.37
2023-02-07T13:19:25.421Z,7.40
2023-02-07T13:22:30.365Z,9.30
2023-02-07T13:24:57.954Z,9.77
2023-02-07T13:27:27.777Z,10.17
2023-02-07T13:29:55.218Z,9.60
2023-02-07T13:32:25.075Z,9.67
2023-02-07T13:35:03.162Z,8.80
2023-02-07T13:37:49.848Z,9.93
2023-02-07T13:40:41.653Z,11.30
2023-02-07T13:43:08.327Z,10.30
2023-02-07T13:45:47.666Z,10.60
2023-02-07T13:48:34.250Z,8.87
2023-02-07T13:51:27.502Z,9.37
2023-02-07T13:54:22.495Z,9.43
2023-02-07T13:57:19.642Z,10.53
2023-02-07T14:00:16.355Z,9.53
2023-02-07T14:02:50.620Z,8.03
2023-02-07T14:05:28.608Z,8.43
2023-02-07T14:08:00.012Z,8.93
2023-02-07T14:10:45.977Z,9.87
2023-02-07T14:13:34.711Z,7.77
2023-02-07T14:16:12.852Z,10.77
2023-02-07T14:18:52.339Z,12.40
2023-02-07T14:21:18.942Z,11.10
2023-02-07T14:23:57.668Z,10.17
2023-02-07T14:26:39.376Z,10.33
2023-02-07T14:29:22.779Z,10.67
2023-02-07T14:31:49.535Z,9.37
2023-02-07T14:34:20.934Z,10.63
2023-02-07T14:36:48.676Z,7.87
2023-02-07T14:39:18.040Z,7.13
2023-02-07T14:41:46.711Z,8.40
2023-02-07T14:44:36.568Z,8.20
2023-02-07T14:47:05.515Z,8.33
2023-02-07T14:49:38.623Z,6.50
2023-02-07T14:52:11.187Z,9.43
2023-02-07T14:54:40.917Z,8.73
2023-02-07T14:57:10.576Z,9.97
2023-02-07T15:00:04.968Z,12.63
2023-02-07T15:02:42.656Z,12.10
2023-02-07T15:05:26.330Z,10.03
2023-02-07T15:08:01.927Z,9.57
2023-02-07T15:10:32.863Z,11.03
2023-02-07T15:13:00.895Z,12.27
2023-02-07T15:15:50.299Z,11.20
2023-02-07T15:18:18.723Z,10.83
2023-02-07T15:20:51.246Z,12.17
2023-02-07T15:23:18.312Z,13.27
2023-02-07T15:25:45.789Z,9.37
2023-02-07T15:28:27.476Z,10.90
2023-02-07T15:31:02.148Z,10.57
2023-02-07T15:33:36.847Z,12.57
2023-02-07T15:36:24.649Z,12.50
2023-02-07T15:38:51.929Z,9.97
2023-02-07T15:41:18.750Z,9.47
2023-02-07T15:44:05.904Z,12.17
2023-02-07T15:46:56.970Z,13.03
2023-02-07T15:49:31.382Z,13.40
2023-02-07T15:52:00.971Z,11.20
2023-02-07T15:54:27.930Z,10.07
2023-02-07T15:57:00.527Z,11.43
2023-02-07T15:59:31.741Z,12.80
2023-02-07T16:02:01.194Z,11.47
2023-02-07T16:04:31.319Z,12.23
2023-02-07T16:07:07.010Z,11.27
2023-02-07T16:09:43.350Z,11.67
2023-02-07T16:12:45.795Z,10.63
2023-02-07T16:15:22.611Z,9.40
2023-02-07T16:17:49.280Z,8.77
2023-02-07T16:20:16.667Z,8.77
2023-02-07T16:22:45.828Z,7.90
2023-02-07T16:25:21.279Z,9.97
2023-02-07T16:27:50.724Z,8.63
2023-02-07T16:30:38.230Z,8.37
2023-02-07T16:33:07.135Z,9.90
2023-02-07T16:35:33.809Z,9.73
2023-02-07T16:38:00.472Z,8.70
2023-02-07T16:40:27.219Z,9.80
2023-02-07T16:42:55.432Z,8.50
2023-02-07T16:45:24.884Z,8.20
2023-02-07T16:47:51.953Z,8.93
2023-02-07T16:50:21.622Z,11.40
2023-02-07T16:52:49.777Z,10.80
2023-02-07T16:55:18.884Z,11.00
2023-02-07T16:57:47.719Z,10.20
2023-02-07T17:00:18.064Z,10.50
2023-02-07T17:02:48.583Z,8.90
2023-02-07T17:05:16.290Z,8.10
2023-02-07T17:07:43.260Z,8.23
2023-02-07T17:10:19.721Z,7.70
2023-02-07T17:12:46.580Z,8.77
2023-02-07T17:15:13.345Z,8.50
2023-02-07T17:17:40.114Z,8.80
2023-02-07T17:20:27.086Z,9.57
2023-02-07T17:22:54.366Z,13.10
2023-02-07T17:25:26.194Z,10.07
2023-02-07T17:27:53.015Z,8.83
2023-02-07T17:30:28.438Z,11.40
2023-02-07T17:32:56.266Z,9.20
2023-02-07T17:35:23.663Z,9.80
2023-02-07T17:37:50.448Z,8.40
2023-02-07T17:40:23.033Z,9.30
2023-02-07T17:42:50.280Z,9.43
2023-02-07T17:45:17.250Z,8.27
2023-02-07T17:47:44.508Z,7.93
2023-02-07T17:50:20.097Z,7.70
2023-02-07T17:52:46.936Z,7.87
2023-02-07T17:55:14.778Z,8.83
2023-02-07T17:57:42.334Z,8.00
2023-02-07T18:00:21.819Z,8.40
2023-02-07T18:02:48.730Z,10.60
2023-02-07T18:05:16.825Z,9.30
2023-02-07T18:07:44.959Z,8.83
2023-02-07T18:10:17.896Z,9.00
2023-02-07T18:12:44.711Z,8.67
2023-02-07T18:15:12.292Z,7.87
2023-02-07T18:17:39.428Z,8.60
2023-02-07T18:20:11.115Z,8.80
2023-02-07T18:22:38.363Z,7.93
2023-02-07T18:25:05.384Z,9.13
2023-02-07T18:27:32.419Z,8.80
2023-02-07T18:29:59.145Z,8.77
2023-02-07T18:32:25.962Z,8.43
2023-02-07T18:34:52.857Z,9.10
2023-02-07T18:37:21.249Z,8.77
2023-02-07T18:39:48.891Z,8.73
2023-02-07T18:42:17.635Z,9.13
2023-02-07T18:44:44.605Z,10.00
2023-02-07T18:47:11.339Z,8.50
2023-02-07T18:49:38.141Z,8.27
2023-02-07T18:52:04.993Z,8.50
2023-02-07T18:54:31.743Z,9.33
2023-02-07T18:56:58.523Z,8.37
2023-02-07T18:59:25.552Z,7.50
2023-02-07T19:01:53.722Z,8.13
2023-02-07T19:04:21.360Z,7.23
2023-02-07T19:06:49.858Z,7.37
2023-02-07T19:09:17.718Z,8.00
2023-02-07T19:11:45.011Z,7.70
2023-02-07T19:14:18.347Z,7.10
2023-02-07T19:16:46.116Z,7.63
2023-02-07T19:19:14.732Z,6.50
2023-02-07T19:21:41.718Z,6.70
2023-02-07T19:24:10.877Z,6.70
2023-02-07T19:26:38.956Z,7.07
2023-02-07T19:29:06.154Z,5.83
2023-02-07T19:31:33.303Z,7.20
2023-02-07T19:34:00.468Z,6.93
2023-02-07T19:36:27.958Z,7.40
2023-02-07T19:38:55.110Z,6.33
2023-02-07T19:41:24.168Z,8.43
2023-02-07T19:43:51.175Z,7.20
2023-02-07T19:46:19.157Z,7.97
2023-02-07T19:48:47.447Z,7.00
2023-02-07T19:51:22.107Z,6.60
2023-02-07T19:53:51.263Z,7.10
2023-02-07T19:56:19.509Z,6.73
2023-02-07T19:58:48.896Z,5.83
2023-02-07T20:01:16.527Z,6.93
2023-02-07T20:03:44.440Z,6.50
2023-02-07T20:06:13.927Z,7.13
2023-02-07T20:08:41.442Z,7.43
2023-02-07T20:11:12.560Z,6.43
2023-02-07T20:13:42.149Z,5.97
2023-02-07T20:16:12.575Z,6.40
2023-02-07T20:18:39.413Z,6.57
2023-02-07T20:21:11.677Z,8.10
2023-02-07T20:23:40.008Z,7.33
2023-02-07T20:26:08.981Z,7.60
2023-02-07T20:28:36.673Z,8.00
2023-02-07T20:31:08.672Z,7.90
2023-02-07T20:33:36.945Z,7.53
2023-02-07T20:36:04.929Z,7.23
2023-02-07T20:38:31.690Z,8.10
2023-02-07T20:41:07.249Z,7.67
2023-02-07T20:43:34.080Z,7.13
2023-02-07T20:46:12.717Z,7.50
2023-02-07T20:48:42.836Z,6.93
2023-02-07T20:51:11.145Z,7.37
2023-02-07T20:53:43.636Z,7.43
2023-02-07T20:56:18.894Z,7.50
2023-02-07T20:58:47.275Z,8.00
2023-02-07T21:01:20.601Z,7.17
2023-02-07T21:03:50.380Z,7.10
2023-02-07T21:06:18.035Z,7.10
2023-02-07T21:08:45.291Z,8.07
2023-02-07T21:11:12.751Z,7.07
2023-02-07T21:13:39.898Z,6.70
2023-02-07T21:16:08.032Z,6.33
2023-02-07T21:18:35.386Z,6.83
2023-02-07T21:21:07.024Z,6.47
2023-02-07T21:23:34.148Z,7.33
2023-02-07T21:26:09.567Z,8.10
2023-02-07T21:28:37.030Z,7.63
2023-02-07T21:31:05.582Z,7.83
2023-02-07T21:33:32.368Z,6.70
2023-02-07T21:36:05.223Z,7.10
2023-02-07T21:38:33.305Z,6.93
2023-02-07T21:41:00.598Z,8.20
2023-02-07T21:43:27.278Z,9.00
2023-02-07T21:45:55.066Z,8.93
2023-02-07T21:48:22.407Z,9.70
2023-02-07T21:50:49.169Z,7.40
2023-02-07T21:53:16.696Z,9.20
2023-02-07T21:55:43.367Z,10.40
2023-02-07T21:58:10.036Z,10.33
2023-02-07T22:00:36.743Z,8.50
2023-02-07T22:03:04.523Z,9.17
2023-02-07T22:05:33.109Z,9.03
2023-02-07T22:08:01.358Z,9.70
2023-02-07T22:10:28.199Z,9.60
2023-02-07T22:12:54.946Z,9.63
2023-02-07T22:15:21.714Z,8.10
2023-02-07T22:17:48.370Z,8.00
2023-02-07T22:20:15.805Z,6.97
2023-02-07T22:22:42.494Z,7.33
2023-02-07T22:25:09.183Z,7.20
2023-02-07T22:27:36.900Z,8.90
2023-02-07T22:30:04.045Z,9.00
2023-02-07T22:32:32.213Z,7.57
2023-02-07T22:35:16.557Z,7.90
2023-02-07T22:37:43.468Z,7.00
2023-02-07T22:40:10.651Z,7.80
2023-02-07T22:42:37.328Z,7.80
2023-02-07T22:45:04.354Z,7.70
2023-02-07T22:47:31.085Z,7.00
2023-02-07T22:49:57.719Z,8.10
2023-02-07T22:52:24.431Z,7.70
2023-02-07T22:54:51.305Z,8.90
2023-02-07T22:57:18.091Z,8.20
2023-02-07T22:59:44.907Z,8.40
2023-02-07T23:02:12.200Z,8.70
2023-02-07T23:04:39.689Z,7.60
2023-02-07T23:07:06.659Z,8.03
2023-02-07T23:09:33.729Z,7.83
2023-02-07T23:12:01.164Z,8.87
2023-02-07T23:14:27.997Z,8.37
2023-02-07T23:16:55.597Z,8.40
2023-02-07T23:19:22.512Z,7.70
2023-02-07T23:21:49.546Z,7.93
2023-02-07T23:24:16.602Z,8.30
2023-02-07T23:26:43.553Z,8.23
2023-02-07T23:29:10.528Z,8.03
2023-02-07T23:31:37.333Z,7.33
2023-02-07T23:34:04.180Z,6.93
2023-02-07T23:36:30.895Z,7.90
2023-02-07T23:38:57.549Z,8.80
2023-02-07T23:41:24.267Z,7.40
2023-02-07T23:43:50.987Z,7.93
2023-02-07T23:46:18.343Z,8.77
2023-02-07T23:48:45.856Z,8.90
2023-02-07T23:51:13.801Z,8.60
2023-02-07T23:53:49.256Z,8.37
2023-02-07T23:56:19.286Z,9.60
2023-02-07T23:58:47.744Z,7.90
